sensor_id;sensor_type;location;lat;lon;timestamp;P1;durP1;ratioP1;P2;durP2;ratioP2
18592;SDS011;9426;54.118;17.948;2022-08-03T00:02:24;4.27;;;2.50;;
18592;SDS011;9426;54.118;17.948;2022-08-03T00:07:50;5.73;;;2.50;;
18592;SDS011;9426;54.118;17.948;2022-08-03T00:13:13;6.53;;;2.27;;
18592;SDS011;9426;54.118;17.948;2022-08-03T00:18:37;6.03;;;2.43;;
18592;SDS011;9426;54.118;17.948;2022-08-03T00:24:02;6.93;;;2.40;;
18592;SDS011;9426;54.118;17.948;2022-08-03T00:29:26;6.87;;;2.60;;
18592;SDS011;9426;54.118;17.948;2022-08-03T00:34:50;6.43;;;2.17;;
18592;SDS011;9426;54.118;17.948;2022-08-03T00:40:15;9.00;;;2.63;;
18592;SDS011;9426;54.118;17.948;2022-08-03T00:45:40;11.43;;;2.57;;
18592;SDS011;9426;54.118;17.948;2022-08-03T00:51:04;6.40;;;2.40;;
18592;SDS011;9426;54.118;17.948;2022-08-03T00:56:30;7.27;;;2.27;;
18592;SDS011;9426;54.118;17.948;2022-08-03T01:01:53;6.97;;;2.13;;
18592;SDS011;9426;54.118;17.948;2022-08-03T01:07:18;6.33;;;2.10;;
18592;SDS011;9426;54.118;17.948;2022-08-03T01:12:51;4.67;;;2.00;;
18592;SDS011;9426;54.118;17.948;2022-08-03T01:18:21;4.10;;;1.80;;
18592;SDS011;9426;54.118;17.948;2022-08-03T01:24:03;4.93;;;1.70;;
18592;SDS011;9426;54.118;17.948;2022-08-03T01:29:53;4.00;;;1.93;;
18592;SDS011;9426;54.118;17.948;2022-08-03T01:35:23;10.17;;;2.40;;
18592;SDS011;9426;54.118;17.948;2022-08-03T01:40:49;5.37;;;2.53;;
18592;SDS011;9426;54.118;17.948;2022-08-03T01:46:17;6.50;;;1.90;;
18592;SDS011;9426;54.118;17.948;2022-08-03T01:51:42;7.50;;;2.40;;
18592;SDS011;9426;54.118;17.948;2022-08-03T01:57:16;6.73;;;2.70;;
18592;SDS011;9426;54.118;17.948;2022-08-03T02:02:43;4.07;;;1.90;;
18592;SDS011;9426;54.118;17.948;2022-08-03T02:08:09;4.03;;;1.80;;
18592;SDS011;9426;54.118;17.948;2022-08-03T02:13:34;6.20;;;1.80;;
18592;SDS011;9426;54.118;17.948;2022-08-03T02:18:59;7.27;;;2.60;;
18592;SDS011;9426;54.118;17.948;2022-08-03T02:24:26;8.27;;;2.60;;
18592;SDS011;9426;54.118;17.948;2022-08-03T02:29:52;5.60;;;2.20;;
18592;SDS011;9426;54.118;17.948;2022-08-03T02:35:22;8.07;;;2.53;;
18592;SDS011;9426;54.118;17.948;2022-08-03T02:40:47;5.40;;;2.30;;
18592;SDS011;9426;54.118;17.948;2022-08-03T02:46:12;10.07;;;2.90;;
18592;SDS011;9426;54.118;17.948;2022-08-03T02:51:41;6.83;;;2.77;;
18592;SDS011;9426;54.118;17.948;2022-08-03T02:57:05;5.00;;;2.37;;
18592;SDS011;9426;54.118;17.948;2022-08-03T03:02:29;4.63;;;2.17;;
18592;SDS011;9426;54.118;17.948;2022-08-03T03:07:54;3.77;;;2.00;;
18592;SDS011;9426;54.118;17.948;2022-08-03T03:13:18;5.53;;;1.90;;
18592;SDS011;9426;54.118;17.948;2022-08-03T03:18:43;7.57;;;2.37;;
18592;SDS011;9426;54.118;17.948;2022-08-03T03:24:11;7.40;;;2.00;;
18592;SDS011;9426;54.118;17.948;2022-08-03T03:29:35;5.13;;;2.00;;
18592;SDS011;9426;54.118;17.948;2022-08-03T03:34:59;7.33;;;2.57;;
18592;SDS011;9426;54.118;17.948;2022-08-03T03:40:24;5.07;;;2.00;;
18592;SDS011;9426;54.118;17.948;2022-08-03T03:45:49;5.17;;;2.00;;
18592;SDS011;9426;54.118;17.948;2022-08-03T03:51:14;8.33;;;2.63;;
18592;SDS011;9426;54.118;17.948;2022-08-03T03:56:39;5.63;;;2.07;;
18592;SDS011;9426;54.118;17.948;2022-08-03T04:02:02;4.60;;;1.93;;
18592;SDS011;9426;54.118;17.948;2022-08-03T04:07:26;4.03;;;1.80;;
18592;SDS011;9426;54.118;17.948;2022-08-03T04:13:18;4.60;;;1.97;;
18592;SDS011;9426;54.118;17.948;2022-08-03T04:18:43;3.77;;;2.07;;
18592;SDS011;9426;54.118;17.948;2022-08-03T04:24:10;4.83;;;1.80;;
18592;SDS011;9426;54.118;17.948;2022-08-03T04:29:38;7.50;;;2.60;;
18592;SDS011;9426;54.118;17.948;2022-08-03T04:35:07;7.63;;;2.10;;
18592;SDS011;9426;54.118;17.948;2022-08-03T04:40:31;3.83;;;1.83;;
18592;SDS011;9426;54.118;17.948;2022-08-03T04:45:58;5.77;;;2.43;;
18592;SDS011;9426;54.118;17.948;2022-08-03T04:51:22;5.73;;;2.70;;
18592;SDS011;9426;54.118;17.948;2022-08-03T04:56:46;4.83;;;2.50;;
18592;SDS011;9426;54.118;17.948;2022-08-03T05:02:10;6.23;;;2.60;;
18592;SDS011;9426;54.118;17.948;2022-08-03T05:07:34;3.63;;;1.93;;
18592;SDS011;9426;54.118;17.948;2022-08-03T05:12:57;4.30;;;2.07;;
18592;SDS011;9426;54.118;17.948;2022-08-03T05:18:22;6.03;;;2.70;;
18592;SDS011;9426;54.118;17.948;2022-08-03T05:23:45;5.33;;;2.60;;
18592;SDS011;9426;54.118;17.948;2022-08-03T05:29:09;5.40;;;2.63;;
18592;SDS011;9426;54.118;17.948;2022-08-03T05:34:33;13.73;;;3.73;;
18592;SDS011;9426;54.118;17.948;2022-08-03T05:39:57;6.10;;;2.73;;
18592;SDS011;9426;54.118;17.948;2022-08-03T05:45:20;6.47;;;2.40;;
18592;SDS011;9426;54.118;17.948;2022-08-03T05:50:49;6.80;;;2.77;;
18592;SDS011;9426;54.118;17.948;2022-08-03T05:56:12;9.53;;;3.50;;
18592;SDS011;9426;54.118;17.948;2022-08-03T06:01:36;9.23;;;4.30;;
18592;SDS011;9426;54.118;17.948;2022-08-03T06:07:01;8.93;;;4.10;;
18592;SDS011;9426;54.118;17.948;2022-08-03T06:12:25;14.10;;;4.40;;
18592;SDS011;9426;54.118;17.948;2022-08-03T06:17:48;9.87;;;3.50;;
18592;SDS011;9426;54.118;17.948;2022-08-03T06:23:14;11.47;;;3.60;;
18592;SDS011;9426;54.118;17.948;2022-08-03T06:28:38;7.67;;;3.00;;
18592;SDS011;9426;54.118;17.948;2022-08-03T06:34:04;10.57;;;3.80;;
18592;SDS011;9426;54.118;17.948;2022-08-03T06:39:30;15.60;;;4.07;;
18592;SDS011;9426;54.118;17.948;2022-08-03T06:44:53;9.77;;;3.47;;
18592;SDS011;9426;54.118;17.948;2022-08-03T06:50:17;12.50;;;4.17;;
18592;SDS011;9426;54.118;17.948;2022-08-03T06:55:45;10.83;;;3.93;;
18592;SDS011;9426;54.118;17.948;2022-08-03T07:01:11;7.87;;;3.13;;
18592;SDS011;9426;54.118;17.948;2022-08-03T07:06:34;5.80;;;3.10;;
18592;SDS011;9426;54.118;17.948;2022-08-03T07:12:01;16.60;;;3.83;;
18592;SDS011;9426;54.118;17.948;2022-08-03T07:17:26;9.67;;;3.37;;
18592;SDS011;9426;54.118;17.948;2022-08-03T07:22:51;5.17;;;2.73;;
18592;SDS011;9426;54.118;17.948;2022-08-03T07:28:15;6.13;;;2.83;;
18592;SDS011;9426;54.118;17.948;2022-08-03T07:33:39;8.52;;;3.67;;
18592;SDS011;9426;54.118;17.948;2022-08-03T07:39:03;8.70;;;3.55;;
18592;SDS011;9426;54.118;17.948;2022-08-03T07:44:27;9.25;;;2.50;;
18592;SDS011;9426;54.118;17.948;2022-08-03T07:49:51;6.72;;;2.63;;
18592;SDS011;9426;54.118;17.948;2022-08-03T07:55:15;6.70;;;2.70;;
18592;SDS011;9426;54.118;17.948;2022-08-03T08:00:42;12.93;;;3.90;;
18592;SDS011;9426;54.118;17.948;2022-08-03T08:06:05;6.90;;;2.75;;
18592;SDS011;9426;54.118;17.948;2022-08-03T08:11:31;13.35;;;2.75;;
18592;SDS011;9426;54.118;17.948;2022-08-03T08:16:59;4.07;;;2.13;;
18592;SDS011;9426;54.118;17.948;2022-08-03T08:22:25;5.80;;;2.20;;
18592;SDS011;9426;54.118;17.948;2022-08-03T08:27:48;6.55;;;2.38;;
18592;SDS011;9426;54.118;17.948;2022-08-03T08:33:13;3.90;;;1.70;;
18592;SDS011;9426;54.118;17.948;2022-08-03T08:38:37;3.05;;;1.60;;
18592;SDS011;9426;54.118;17.948;2022-08-03T08:44:02;7.00;;;1.90;;
18592;SDS011;9426;54.118;17.948;2022-08-03T08:49:29;5.57;;;2.05;;
18592;SDS011;9426;54.118;17.948;2022-08-03T08:55:01;24.27;;;3.03;;
18592;SDS011;9426;54.118;17.948;2022-08-03T09:00:27;5.93;;;1.80;;
18592;SDS011;9426;54.118;17.948;2022-08-03T09:05:53;4.70;;;2.00;;
18592;SDS011;9426;54.118;17.948;2022-08-03T09:11:19;3.50;;;1.88;;
18592;SDS011;9426;54.118;17.948;2022-08-03T09:22:25;6.32;;;2.40;;
18592;SDS011;9426;54.118;17.948;2022-08-03T09:27:50;3.47;;;1.90;;
18592;SDS011;9426;54.118;17.948;2022-08-03T09:33:13;7.90;;;1.85;;
18592;SDS011;9426;54.118;17.948;2022-08-03T09:38:39;7.30;;;2.30;;
18592;SDS011;9426;54.118;17.948;2022-08-03T09:44:02;11.35;;;2.10;;
18592;SDS011;9426;54.118;17.948;2022-08-03T09:49:26;5.68;;;2.10;;
18592;SDS011;9426;54.118;17.948;2022-08-03T09:54:51;10.40;;;2.20;;
18592;SDS011;9426;54.118;17.948;2022-08-03T10:00:15;9.73;;;1.80;;
18592;SDS011;9426;54.118;17.948;2022-08-03T10:05:39;10.18;;;2.45;;
18592;SDS011;9426;54.118;17.948;2022-08-03T10:11:06;5.82;;;2.05;;
18592;SDS011;9426;54.118;17.948;2022-08-03T10:16:30;4.00;;;1.85;;
18592;SDS011;9426;54.118;17.948;2022-08-03T10:21:56;2.88;;;1.88;;
18592;SDS011;9426;54.118;17.948;2022-08-03T10:27:28;7.20;;;2.00;;
18592;SDS011;9426;54.118;17.948;2022-08-03T10:32:55;7.63;;;2.10;;
18592;SDS011;9426;54.118;17.948;2022-08-03T10:38:25;7.35;;;2.13;;
18592;SDS011;9426;54.118;17.948;2022-08-03T10:43:57;3.60;;;1.98;;
18592;SDS011;9426;54.118;17.948;2022-08-03T10:49:25;3.97;;;2.15;;
18592;SDS011;9426;54.118;17.948;2022-08-03T10:54:48;4.53;;;2.20;;
18592;SDS011;9426;54.118;17.948;2022-08-03T11:00:48;7.03;;;2.30;;
18592;SDS011;9426;54.118;17.948;2022-08-03T11:06:13;6.28;;;2.30;;
18592;SDS011;9426;54.118;17.948;2022-08-03T11:11:39;8.10;;;2.03;;
18592;SDS011;9426;54.118;17.948;2022-08-03T11:17:06;3.88;;;1.90;;
18592;SDS011;9426;54.118;17.948;2022-08-03T11:28:26;3.38;;;1.70;;
18592;SDS011;9426;54.118;17.948;2022-08-03T11:34:03;6.30;;;1.80;;
18592;SDS011;9426;54.118;17.948;2022-08-03T11:39:36;4.25;;;1.85;;
18592;SDS011;9426;54.118;17.948;2022-08-03T11:45:00;7.90;;;1.80;;
18592;SDS011;9426;54.118;17.948;2022-08-03T11:50:35;4.68;;;1.77;;
18592;SDS011;9426;54.118;17.948;2022-08-03T11:55:59;4.93;;;1.70;;
18592;SDS011;9426;54.118;17.948;2022-08-03T12:01:24;3.13;;;1.63;;
18592;SDS011;9426;54.118;17.948;2022-08-03T12:06:58;4.60;;;2.10;;
18592;SDS011;9426;54.118;17.948;2022-08-03T12:12:22;5.18;;;2.00;;
18592;SDS011;9426;54.118;17.948;2022-08-03T12:17:45;19.35;;;2.35;;
18592;SDS011;9426;54.118;17.948;2022-08-03T12:23:11;2.25;;;1.50;;
18592;SDS011;9426;54.118;17.948;2022-08-03T12:28:34;2.85;;;1.35;;
18592;SDS011;9426;54.118;17.948;2022-08-03T12:34:00;2.92;;;1.70;;
18592;SDS011;9426;54.118;17.948;2022-08-03T12:55:23;3.30;;;1.50;;
18592;SDS011;9426;54.118;17.948;2022-08-03T13:01:38;4.88;;;1.52;;
18592;SDS011;9426;54.118;17.948;2022-08-03T13:07:02;6.10;;;1.58;;
18592;SDS011;9426;54.118;17.948;2022-08-03T13:12:29;3.53;;;1.30;;
18592;SDS011;9426;54.118;17.948;2022-08-03T13:17:53;2.25;;;1.55;;
18592;SDS011;9426;54.118;17.948;2022-08-03T13:23:18;4.68;;;1.50;;
18592;SDS011;9426;54.118;17.948;2022-08-03T13:28:43;2.88;;;1.50;;
18592;SDS011;9426;54.118;17.948;2022-08-03T13:34:06;6.47;;;1.60;;
18592;SDS011;9426;54.118;17.948;2022-08-03T13:39:29;4.78;;;1.30;;
18592;SDS011;9426;54.118;17.948;2022-08-03T13:44:54;3.63;;;1.60;;
18592;SDS011;9426;54.118;17.948;2022-08-03T13:50:18;5.47;;;1.60;;
18592;SDS011;9426;54.118;17.948;2022-08-03T13:55:41;7.60;;;1.60;;
18592;SDS011;9426;54.118;17.948;2022-08-03T14:01:06;3.15;;;1.30;;
18592;SDS011;9426;54.118;17.948;2022-08-03T14:06:29;5.85;;;1.88;;
18592;SDS011;9426;54.118;17.948;2022-08-03T14:11:53;1.88;;;1.20;;
18592;SDS011;9426;54.118;17.948;2022-08-03T14:17:17;4.45;;;1.52;;
18592;SDS011;9426;54.118;17.948;2022-08-03T14:22:41;5.68;;;1.90;;
18592;SDS011;9426;54.118;17.948;2022-08-03T14:28:04;4.85;;;1.73;;
18592;SDS011;9426;54.118;17.948;2022-08-03T14:33:29;2.63;;;1.30;;
18592;SDS011;9426;54.118;17.948;2022-08-03T14:38:53;1.52;;;1.00;;
18592;SDS011;9426;54.118;17.948;2022-08-03T14:44:19;5.00;;;1.55;;
18592;SDS011;9426;54.118;17.948;2022-08-03T14:49:44;9.40;;;1.75;;
18592;SDS011;9426;54.118;17.948;2022-08-03T14:55:07;13.20;;;2.17;;
18592;SDS011;9426;54.118;17.948;2022-08-03T15:00:31;2.17;;;1.38;;
18592;SDS011;9426;54.118;17.948;2022-08-03T15:05:56;5.47;;;1.60;;
18592;SDS011;9426;54.118;17.948;2022-08-03T15:11:20;5.88;;;1.63;;
18592;SDS011;9426;54.118;17.948;2022-08-03T15:16:43;3.47;;;1.60;;
18592;SDS011;9426;54.118;17.948;2022-08-03T15:22:08;2.78;;;1.33;;
18592;SDS011;9426;54.118;17.948;2022-08-03T15:27:31;5.80;;;1.77;;
18592;SDS011;9426;54.118;17.948;2022-08-03T15:32:54;3.67;;;1.10;;
18592;SDS011;9426;54.118;17.948;2022-08-03T15:38:19;2.00;;;1.30;;
18592;SDS011;9426;54.118;17.948;2022-08-03T15:43:44;2.08;;;1.23;;
18592;SDS011;9426;54.118;17.948;2022-08-03T15:49:07;29.80;;;3.45;;
18592;SDS011;9426;54.118;17.948;2022-08-03T15:54:32;6.18;;;1.77;;
18592;SDS011;9426;54.118;17.948;2022-08-03T15:59:55;6.10;;;1.30;;
18592;SDS011;9426;54.118;17.948;2022-08-03T16:05:19;18.55;;;2.55;;
18592;SDS011;9426;54.118;17.948;2022-08-03T16:10:44;24.80;;;3.53;;
18592;SDS011;9426;54.118;17.948;2022-08-03T16:16:08;7.60;;;1.75;;
18592;SDS011;9426;54.118;17.948;2022-08-03T16:21:32;2.42;;;1.42;;
18592;SDS011;9426;54.118;17.948;2022-08-03T16:26:57;51.28;;;4.45;;
18592;SDS011;9426;54.118;17.948;2022-08-03T16:32:21;3.05;;;1.40;;
18592;SDS011;9426;54.118;17.948;2022-08-03T16:37:45;9.30;;;2.45;;
18592;SDS011;9426;54.118;17.948;2022-08-03T16:43:10;10.70;;;1.85;;
18592;SDS011;9426;54.118;17.948;2022-08-03T16:48:35;7.60;;;1.60;;
18592;SDS011;9426;54.118;17.948;2022-08-03T16:53:58;3.10;;;1.40;;
18592;SDS011;9426;54.118;17.948;2022-08-03T16:59:23;4.45;;;1.25;;
18592;SDS011;9426;54.118;17.948;2022-08-03T17:04:46;9.88;;;1.50;;
18592;SDS011;9426;54.118;17.948;2022-08-03T17:10:10;19.67;;;2.30;;
18592;SDS011;9426;54.118;17.948;2022-08-03T17:15:34;12.73;;;2.20;;
18592;SDS011;9426;54.118;17.948;2022-08-03T17:21:02;4.35;;;1.60;;
18592;SDS011;9426;54.118;17.948;2022-08-03T17:26:26;4.53;;;1.58;;
18592;SDS011;9426;54.118;17.948;2022-08-03T17:31:53;5.85;;;1.90;;
18592;SDS011;9426;54.118;17.948;2022-08-03T17:37:17;3.08;;;1.55;;
18592;SDS011;9426;54.118;17.948;2022-08-03T17:42:43;4.05;;;2.08;;
18592;SDS011;9426;54.118;17.948;2022-08-03T17:48:09;1.85;;;1.60;;
18592;SDS011;9426;54.118;17.948;2022-08-03T17:53:34;3.85;;;1.83;;
18592;SDS011;9426;54.118;17.948;2022-08-03T17:59:01;3.13;;;2.10;;
18592;SDS011;9426;54.118;17.948;2022-08-03T18:04:32;3.22;;;1.90;;
18592;SDS011;9426;54.118;17.948;2022-08-03T18:10:03;2.55;;;1.90;;
18592;SDS011;9426;54.118;17.948;2022-08-03T18:15:30;3.83;;;1.90;;
18592;SDS011;9426;54.118;17.948;2022-08-03T18:21:01;4.10;;;2.00;;
18592;SDS011;9426;54.118;17.948;2022-08-03T18:26:26;2.15;;;1.77;;
18592;SDS011;9426;54.118;17.948;2022-08-03T18:31:51;3.20;;;1.98;;
18592;SDS011;9426;54.118;17.948;2022-08-03T18:43:16;3.08;;;2.00;;
18592;SDS011;9426;54.118;17.948;2022-08-03T18:48:45;2.58;;;2.00;;
18592;SDS011;9426;54.118;17.948;2022-08-03T18:54:19;4.32;;;2.10;;
18592;SDS011;9426;54.118;17.948;2022-08-03T19:14:33;4.97;;;2.15;;
18592;SDS011;9426;54.118;17.948;2022-08-03T19:27:47;2.55;;;2.13;;
18592;SDS011;9426;54.118;17.948;2022-08-03T19:33:30;2.75;;;2.13;;
18592;SDS011;9426;54.118;17.948;2022-08-03T19:39:00;2.78;;;2.40;;
18592;SDS011;9426;54.118;17.948;2022-08-03T19:44:27;4.55;;;2.90;;
18592;SDS011;9426;54.118;17.948;2022-08-03T19:55:50;5.88;;;3.53;;
18592;SDS011;9426;54.118;17.948;2022-08-03T20:01:30;7.10;;;3.70;;
18592;SDS011;9426;54.118;17.948;2022-08-03T20:06:56;4.57;;;2.85;;
18592;SDS011;9426;54.118;17.948;2022-08-03T20:12:21;6.32;;;2.90;;
18592;SDS011;9426;54.118;17.948;2022-08-03T20:17:45;4.03;;;2.55;;
18592;SDS011;9426;54.118;17.948;2022-08-03T20:23:12;3.25;;;2.00;;
18592;SDS011;9426;54.118;17.948;2022-08-03T20:28:41;3.65;;;2.35;;
18592;SDS011;9426;54.118;17.948;2022-08-03T20:34:06;2.90;;;2.20;;
18592;SDS011;9426;54.118;17.948;2022-08-03T20:39:31;3.87;;;2.83;;
18592;SDS011;9426;54.118;17.948;2022-08-03T20:44:55;3.70;;;2.87;;
18592;SDS011;9426;54.118;17.948;2022-08-03T20:50:18;5.63;;;3.60;;
18592;SDS011;9426;54.118;17.948;2022-08-03T20:55:43;12.67;;;4.90;;
18592;SDS011;9426;54.118;17.948;2022-08-03T21:01:08;10.20;;;5.03;;
18592;SDS011;9426;54.118;17.948;2022-08-03T21:06:33;5.77;;;3.60;;
18592;SDS011;9426;54.118;17.948;2022-08-03T21:12:02;10.30;;;4.17;;
18592;SDS011;9426;54.118;17.948;2022-08-03T21:18:09;4.43;;;2.97;;
18592;SDS011;9426;54.118;17.948;2022-08-03T21:23:49;6.60;;;3.00;;
18592;SDS011;9426;54.118;17.948;2022-08-03T21:29:16;4.40;;;2.77;;
18592;SDS011;9426;54.118;17.948;2022-08-03T21:34:39;3.33;;;2.50;;
18592;SDS011;9426;54.118;17.948;2022-08-03T21:40:06;4.60;;;2.93;;
18592;SDS011;9426;54.118;17.948;2022-08-03T21:45:32;5.17;;;3.10;;
18592;SDS011;9426;54.118;17.948;2022-08-03T21:50:57;6.67;;;2.90;;
18592;SDS011;9426;54.118;17.948;2022-08-03T21:56:21;4.07;;;2.80;;
18592;SDS011;9426;54.118;17.948;2022-08-03T22:01:49;3.97;;;2.70;;
18592;SDS011;9426;54.118;17.948;2022-08-03T22:07:39;5.67;;;3.10;;
18592;SDS011;9426;54.118;17.948;2022-08-03T22:53:36;6.00;;;2.83;;
18592;SDS011;9426;54.118;17.948;2022-08-03T23:35:41;4.83;;;3.33;;
18592;SDS011;9426;54.118;17.948;2022-08-03T23:41:21;3.80;;;2.80;;
18592;SDS011;9426;54.118;17.948;2022-08-03T23:46:44;3.73;;;2.70;;
18592;SDS011;9426;54.118;17.948;2022-08-03T23:52:12;4.90;;;3.30;;
18592;SDS011;9426;54.118;17.948;2022-08-03T23:57:45;4.17;;;2.73;;
